sensor_id;sensor_type;location;lat;lon;timestamp;P1;durP1;ratioP1;P2;durP2;ratioP2
12124;SDS011;6126;57.908;16.490;2023-07-16T00:01:48;1.98;;;1.70;;
12124;SDS011;6126;57.908;16.490;2023-07-16T00:04:13;1.88;;;1.65;;
12124;SDS011;6126;57.908;16.490;2023-07-16T00:06:39;4.55;;;1.98;;
12124;SDS011;6126;57.908;16.490;2023-07-16T00:09:05;2.67;;;1.67;;
12124;SDS011;6126;57.908;16.490;2023-07-16T00:11:31;2.65;;;1.85;;
12124;SDS011;6126;57.908;16.490;2023-07-16T00:13:57;4.68;;;2.10;;
12124;SDS011;6126;57.908;16.490;2023-07-16T00:16:23;1.58;;;1.48;;
12124;SDS011;6126;57.908;16.490;2023-07-16T00:18:49;2.63;;;1.85;;
12124;SDS011;6126;57.908;16.490;2023-07-16T00:21:14;2.45;;;1.60;;
12124;SDS011;6126;57.908;16.490;2023-07-16T00:23:40;1.83;;;1.52;;
12124;SDS011;6126;57.908;16.490;2023-07-16T00:26:06;2.53;;;1.75;;
12124;SDS011;6126;57.908;16.490;2023-07-16T00:28:32;3.40;;;1.95;;
12124;SDS011;6126;57.908;16.490;2023-07-16T00:30:58;2.50;;;1.65;;
12124;SDS011;6126;57.908;16.490;2023-07-16T00:33:24;5.07;;;2.30;;
12124;SDS011;6126;57.908;16.490;2023-07-16T00:35:50;2.80;;;1.50;;
12124;SDS011;6126;57.908;16.490;2023-07-16T00:38:19;2.58;;;1.85;;
12124;SDS011;6126;57.908;16.490;2023-07-16T00:40:45;3.47;;;2.10;;
12124;SDS011;6126;57.908;16.490;2023-07-16T00:43:12;5.78;;;2.00;;
12124;SDS011;6126;57.908;16.490;2023-07-16T00:45:38;3.63;;;2.10;;
12124;SDS011;6126;57.908;16.490;2023-07-16T00:48:06;3.15;;;2.25;;
12124;SDS011;6126;57.908;16.490;2023-07-16T00:50:33;3.40;;;2.00;;
12124;SDS011;6126;57.908;16.490;2023-07-16T00:53:04;3.38;;;2.15;;
12124;SDS011;6126;57.908;16.490;2023-07-16T00:55:32;4.45;;;1.98;;
12124;SDS011;6126;57.908;16.490;2023-07-16T00:58:01;8.27;;;2.42;;
12124;SDS011;6126;57.908;16.490;2023-07-16T01:00:35;3.78;;;2.38;;
12124;SDS011;6126;57.908;16.490;2023-07-16T01:03:03;2.47;;;1.90;;
12124;SDS011;6126;57.908;16.490;2023-07-16T01:05:49;4.05;;;2.10;;
12124;SDS011;6126;57.908;16.490;2023-07-16T01:08:45;2.92;;;2.35;;
12124;SDS011;6126;57.908;16.490;2023-07-16T01:11:20;4.65;;;2.22;;
12124;SDS011;6126;57.908;16.490;2023-07-16T01:13:47;3.92;;;2.50;;
12124;SDS011;6126;57.908;16.490;2023-07-16T01:16:20;2.33;;;2.00;;
12124;SDS011;6126;57.908;16.490;2023-07-16T01:18:48;4.22;;;2.13;;
12124;SDS011;6126;57.908;16.490;2023-07-16T01:21:15;3.78;;;2.33;;
12124;SDS011;6126;57.908;16.490;2023-07-16T01:23:56;2.70;;;2.33;;
12124;SDS011;6126;57.908;16.490;2023-07-16T01:30:05;5.72;;;2.42;;
12124;SDS011;6126;57.908;16.490;2023-07-16T01:32:36;3.00;;;2.38;;
12124;SDS011;6126;57.908;16.490;2023-07-16T01:35:06;3.83;;;2.40;;
12124;SDS011;6126;57.908;16.490;2023-07-16T01:37:34;6.15;;;2.83;;
12124;SDS011;6126;57.908;16.490;2023-07-16T01:40:01;5.65;;;2.30;;
12124;SDS011;6126;57.908;16.490;2023-07-16T01:42:29;6.65;;;2.90;;
12124;SDS011;6126;57.908;16.490;2023-07-16T01:44:55;3.90;;;2.10;;
12124;SDS011;6126;57.908;16.490;2023-07-16T01:47:23;4.20;;;2.63;;
12124;SDS011;6126;57.908;16.490;2023-07-16T01:50:16;4.55;;;3.03;;
12124;SDS011;6126;57.908;16.490;2023-07-16T01:52:42;2.63;;;2.42;;
12124;SDS011;6126;57.908;16.490;2023-07-16T01:55:07;5.03;;;2.58;;
12124;SDS011;6126;57.908;16.490;2023-07-16T01:57:33;3.55;;;2.42;;
12124;SDS011;6126;57.908;16.490;2023-07-16T01:59:59;6.80;;;2.65;;
12124;SDS011;6126;57.908;16.490;2023-07-16T02:02:25;3.35;;;2.35;;
12124;SDS011;6126;57.908;16.490;2023-07-16T02:04:51;4.15;;;2.50;;
12124;SDS011;6126;57.908;16.490;2023-07-16T02:07:17;5.43;;;2.60;;
12124;SDS011;6126;57.908;16.490;2023-07-16T02:09:43;4.88;;;2.88;;
12124;SDS011;6126;57.908;16.490;2023-07-16T02:12:09;3.17;;;2.65;;
12124;SDS011;6126;57.908;16.490;2023-07-16T02:14:34;4.25;;;2.88;;
12124;SDS011;6126;57.908;16.490;2023-07-16T02:17:00;6.30;;;3.03;;
12124;SDS011;6126;57.908;16.490;2023-07-16T02:19:26;3.58;;;2.60;;
12124;SDS011;6126;57.908;16.490;2023-07-16T02:21:52;4.25;;;2.80;;
12124;SDS011;6126;57.908;16.490;2023-07-16T02:24:19;6.65;;;2.72;;
12124;SDS011;6126;57.908;16.490;2023-07-16T02:26:45;3.97;;;3.05;;
12124;SDS011;6126;57.908;16.490;2023-07-16T02:29:11;5.20;;;2.78;;
12124;SDS011;6126;57.908;16.490;2023-07-16T02:31:37;3.15;;;2.25;;
12124;SDS011;6126;57.908;16.490;2023-07-16T02:34:03;3.92;;;2.80;;
12124;SDS011;6126;57.908;16.490;2023-07-16T02:36:28;4.75;;;2.90;;
12124;SDS011;6126;57.908;16.490;2023-07-16T02:38:54;4.72;;;2.90;;
12124;SDS011;6126;57.908;16.490;2023-07-16T02:41:20;4.47;;;2.45;;
12124;SDS011;6126;57.908;16.490;2023-07-16T02:43:46;7.70;;;3.20;;
12124;SDS011;6126;57.908;16.490;2023-07-16T02:46:12;6.15;;;2.95;;
12124;SDS011;6126;57.908;16.490;2023-07-16T02:48:38;6.70;;;3.35;;
12124;SDS011;6126;57.908;16.490;2023-07-16T02:51:04;4.82;;;3.10;;
12124;SDS011;6126;57.908;16.490;2023-07-16T02:53:29;7.43;;;2.80;;
12124;SDS011;6126;57.908;16.490;2023-07-16T02:55:55;4.05;;;2.67;;
12124;SDS011;6126;57.908;16.490;2023-07-16T02:58:21;3.65;;;3.13;;
12124;SDS011;6126;57.908;16.490;2023-07-16T03:00:47;5.60;;;3.25;;
12124;SDS011;6126;57.908;16.490;2023-07-16T03:03:13;4.43;;;2.70;;
12124;SDS011;6126;57.908;16.490;2023-07-16T03:05:39;5.10;;;3.05;;
12124;SDS011;6126;57.908;16.490;2023-07-16T03:08:05;4.00;;;2.63;;
12124;SDS011;6126;57.908;16.490;2023-07-16T03:10:30;5.18;;;2.70;;
12124;SDS011;6126;57.908;16.490;2023-07-16T03:12:56;6.05;;;3.17;;
12124;SDS011;6126;57.908;16.490;2023-07-16T03:15:22;6.47;;;2.80;;
12124;SDS011;6126;57.908;16.490;2023-07-16T03:17:48;4.28;;;2.35;;
12124;SDS011;6126;57.908;16.490;2023-07-16T03:20:14;3.97;;;2.72;;
12124;SDS011;6126;57.908;16.490;2023-07-16T03:22:40;5.47;;;2.80;;
12124;SDS011;6126;57.908;16.490;2023-07-16T03:25:06;4.93;;;3.13;;
12124;SDS011;6126;57.908;16.490;2023-07-16T03:27:32;5.03;;;2.85;;
12124;SDS011;6126;57.908;16.490;2023-07-16T03:29:58;4.20;;;2.80;;
12124;SDS011;6126;57.908;16.490;2023-07-16T03:32:24;6.88;;;3.47;;
12124;SDS011;6126;57.908;16.490;2023-07-16T03:34:50;5.72;;;2.85;;
12124;SDS011;6126;57.908;16.490;2023-07-16T03:37:16;5.78;;;3.00;;
12124;SDS011;6126;57.908;16.490;2023-07-16T03:39:42;3.90;;;2.88;;
12124;SDS011;6126;57.908;16.490;2023-07-16T03:42:07;5.05;;;3.40;;
12124;SDS011;6126;57.908;16.490;2023-07-16T03:44:33;6.97;;;3.03;;
12124;SDS011;6126;57.908;16.490;2023-07-16T03:46:59;4.15;;;2.80;;
12124;SDS011;6126;57.908;16.490;2023-07-16T03:49:25;3.97;;;3.22;;
12124;SDS011;6126;57.908;16.490;2023-07-16T03:51:51;6.05;;;2.78;;
12124;SDS011;6126;57.908;16.490;2023-07-16T03:54:17;3.40;;;2.80;;
12124;SDS011;6126;57.908;16.490;2023-07-16T03:56:43;6.45;;;3.25;;
12124;SDS011;6126;57.908;16.490;2023-07-16T03:59:09;4.60;;;2.67;;
12124;SDS011;6126;57.908;16.490;2023-07-16T04:01:34;5.40;;;3.40;;
12124;SDS011;6126;57.908;16.490;2023-07-16T04:04:00;5.25;;;2.78;;
12124;SDS011;6126;57.908;16.490;2023-07-16T04:06:26;8.40;;;2.85;;
12124;SDS011;6126;57.908;16.490;2023-07-16T04:08:52;4.47;;;2.92;;
12124;SDS011;6126;57.908;16.490;2023-07-16T04:11:18;3.45;;;2.70;;
12124;SDS011;6126;57.908;16.490;2023-07-16T04:13:44;5.63;;;2.63;;
12124;SDS011;6126;57.908;16.490;2023-07-16T04:16:09;3.78;;;3.35;;
12124;SDS011;6126;57.908;16.490;2023-07-16T04:18:35;7.32;;;3.22;;
12124;SDS011;6126;57.908;16.490;2023-07-16T04:21:01;3.03;;;2.63;;
12124;SDS011;6126;57.908;16.490;2023-07-16T04:23:27;5.72;;;3.22;;
12124;SDS011;6126;57.908;16.490;2023-07-16T04:25:53;3.65;;;2.88;;
12124;SDS011;6126;57.908;16.490;2023-07-16T04:28:20;6.50;;;3.17;;
12124;SDS011;6126;57.908;16.490;2023-07-16T04:30:46;5.57;;;2.88;;
12124;SDS011;6126;57.908;16.490;2023-07-16T04:33:12;4.22;;;3.00;;
12124;SDS011;6126;57.908;16.490;2023-07-16T04:35:38;3.42;;;2.78;;
12124;SDS011;6126;57.908;16.490;2023-07-16T04:38:04;5.38;;;3.38;;
12124;SDS011;6126;57.908;16.490;2023-07-16T04:40:30;5.95;;;3.65;;
12124;SDS011;6126;57.908;16.490;2023-07-16T04:42:56;6.72;;;3.15;;
12124;SDS011;6126;57.908;16.490;2023-07-16T04:45:22;4.45;;;2.83;;
12124;SDS011;6126;57.908;16.490;2023-07-16T04:47:48;3.85;;;2.80;;
12124;SDS011;6126;57.908;16.490;2023-07-16T04:50:14;4.63;;;2.90;;
12124;SDS011;6126;57.908;16.490;2023-07-16T04:52:39;4.45;;;2.90;;
12124;SDS011;6126;57.908;16.490;2023-07-16T04:55:05;2.60;;;2.35;;
12124;SDS011;6126;57.908;16.490;2023-07-16T04:57:32;5.72;;;3.35;;
12124;SDS011;6126;57.908;16.490;2023-07-16T04:59:59;3.65;;;2.55;;
12124;SDS011;6126;57.908;16.490;2023-07-16T05:02:25;4.70;;;2.83;;
12124;SDS011;6126;57.908;16.490;2023-07-16T05:04:51;9.27;;;3.22;;
12124;SDS011;6126;57.908;16.490;2023-07-16T05:07:17;4.07;;;3.13;;
12124;SDS011;6126;57.908;16.490;2023-07-16T05:09:43;5.72;;;3.05;;
12124;SDS011;6126;57.908;16.490;2023-07-16T05:12:09;4.80;;;2.60;;
12124;SDS011;6126;57.908;16.490;2023-07-16T05:14:42;6.63;;;2.97;;
12124;SDS011;6126;57.908;16.490;2023-07-16T05:17:14;4.05;;;3.13;;
12124;SDS011;6126;57.908;16.490;2023-07-16T05:19:40;8.35;;;3.20;;
12124;SDS011;6126;57.908;16.490;2023-07-16T05:22:07;4.15;;;2.65;;
12124;SDS011;6126;57.908;16.490;2023-07-16T05:24:33;4.47;;;3.05;;
12124;SDS011;6126;57.908;16.490;2023-07-16T05:26:59;6.75;;;3.25;;
12124;SDS011;6126;57.908;16.490;2023-07-16T05:29:26;4.95;;;3.17;;
12124;SDS011;6126;57.908;16.490;2023-07-16T05:31:52;5.43;;;2.75;;
12124;SDS011;6126;57.908;16.490;2023-07-16T05:34:18;3.40;;;2.67;;
12124;SDS011;6126;57.908;16.490;2023-07-16T05:36:43;3.97;;;2.95;;
12124;SDS011;6126;57.908;16.490;2023-07-16T05:39:10;3.45;;;2.85;;
12124;SDS011;6126;57.908;16.490;2023-07-16T05:41:39;4.30;;;3.05;;
12124;SDS011;6126;57.908;16.490;2023-07-16T05:44:06;3.58;;;2.92;;
12124;SDS011;6126;57.908;16.490;2023-07-16T05:46:32;4.43;;;3.20;;
12124;SDS011;6126;57.908;16.490;2023-07-16T05:48:59;3.60;;;2.88;;
12124;SDS011;6126;57.908;16.490;2023-07-16T05:51:25;3.45;;;2.97;;
12124;SDS011;6126;57.908;16.490;2023-07-16T05:53:51;3.20;;;2.35;;
12124;SDS011;6126;57.908;16.490;2023-07-16T05:56:17;3.78;;;3.00;;
12124;SDS011;6126;57.908;16.490;2023-07-16T05:58:42;4.05;;;3.10;;
12124;SDS011;6126;57.908;16.490;2023-07-16T06:01:08;4.22;;;3.33;;
12124;SDS011;6126;57.908;16.490;2023-07-16T06:03:34;4.40;;;2.88;;
12124;SDS011;6126;57.908;16.490;2023-07-16T06:06:00;8.43;;;3.72;;
12124;SDS011;6126;57.908;16.490;2023-07-16T06:08:26;7.32;;;3.20;;
12124;SDS011;6126;57.908;16.490;2023-07-16T06:10:52;5.80;;;3.10;;
12124;SDS011;6126;57.908;16.490;2023-07-16T06:13:18;3.35;;;2.70;;
12124;SDS011;6126;57.908;16.490;2023-07-16T06:15:43;3.25;;;2.88;;
12124;SDS011;6126;57.908;16.490;2023-07-16T06:18:12;5.22;;;3.13;;
12124;SDS011;6126;57.908;16.490;2023-07-16T06:20:37;4.55;;;3.10;;
12124;SDS011;6126;57.908;16.490;2023-07-16T06:23:03;6.45;;;2.95;;
12124;SDS011;6126;57.908;16.490;2023-07-16T06:25:29;4.65;;;3.03;;
12124;SDS011;6126;57.908;16.490;2023-07-16T06:27:55;5.45;;;2.85;;
12124;SDS011;6126;57.908;16.490;2023-07-16T06:30:21;5.93;;;3.08;;
12124;SDS011;6126;57.908;16.490;2023-07-16T06:32:47;6.60;;;3.20;;
12124;SDS011;6126;57.908;16.490;2023-07-16T06:35:13;6.20;;;3.85;;
12124;SDS011;6126;57.908;16.490;2023-07-16T06:37:39;4.45;;;3.40;;
12124;SDS011;6126;57.908;16.490;2023-07-16T06:40:05;4.22;;;3.17;;
12124;SDS011;6126;57.908;16.490;2023-07-16T06:42:32;7.18;;;3.70;;
12124;SDS011;6126;57.908;16.490;2023-07-16T06:44:58;4.57;;;3.30;;
12124;SDS011;6126;57.908;16.490;2023-07-16T06:47:23;5.80;;;3.20;;
12124;SDS011;6126;57.908;16.490;2023-07-16T06:49:49;3.38;;;3.05;;
12124;SDS011;6126;57.908;16.490;2023-07-16T06:52:22;4.72;;;3.10;;
12124;SDS011;6126;57.908;16.490;2023-07-16T06:54:52;4.45;;;3.45;;
12124;SDS011;6126;57.908;16.490;2023-07-16T06:57:19;5.38;;;3.65;;
12124;SDS011;6126;57.908;16.490;2023-07-16T06:59:45;5.40;;;3.10;;
12124;SDS011;6126;57.908;16.490;2023-07-16T07:02:11;4.22;;;3.50;;
12124;SDS011;6126;57.908;16.490;2023-07-16T07:04:37;7.13;;;3.35;;
12124;SDS011;6126;57.908;16.490;2023-07-16T07:07:03;4.95;;;3.58;;
12124;SDS011;6126;57.908;16.490;2023-07-16T07:09:30;10.35;;;3.97;;
12124;SDS011;6126;57.908;16.490;2023-07-16T07:11:55;11.30;;;3.83;;
12124;SDS011;6126;57.908;16.490;2023-07-16T07:14:21;6.85;;;3.80;;
12124;SDS011;6126;57.908;16.490;2023-07-16T07:16:47;8.68;;;4.03;;
12124;SDS011;6126;57.908;16.490;2023-07-16T07:19:13;10.02;;;4.40;;
12124;SDS011;6126;57.908;16.490;2023-07-16T07:21:39;9.70;;;4.28;;
12124;SDS011;6126;57.908;16.490;2023-07-16T07:24:05;9.75;;;4.63;;
12124;SDS011;6126;57.908;16.490;2023-07-16T07:26:30;7.50;;;3.67;;
12124;SDS011;6126;57.908;16.490;2023-07-16T07:28:56;13.35;;;4.72;;
12124;SDS011;6126;57.908;16.490;2023-07-16T07:31:22;6.53;;;3.92;;
12124;SDS011;6126;57.908;16.490;2023-07-16T07:33:48;8.68;;;4.38;;
12124;SDS011;6126;57.908;16.490;2023-07-16T07:36:14;7.90;;;3.50;;
12124;SDS011;6126;57.908;16.490;2023-07-16T07:38:41;4.70;;;3.53;;
12124;SDS011;6126;57.908;16.490;2023-07-16T07:41:07;4.03;;;3.20;;
12124;SDS011;6126;57.908;16.490;2023-07-16T07:43:33;6.63;;;3.88;;
12124;SDS011;6126;57.908;16.490;2023-07-16T07:45:59;5.68;;;3.60;;
12124;SDS011;6126;57.908;16.490;2023-07-16T07:48:25;5.90;;;3.17;;
12124;SDS011;6126;57.908;16.490;2023-07-16T07:50:50;5.32;;;2.80;;
12124;SDS011;6126;57.908;16.490;2023-07-16T07:53:16;3.50;;;2.60;;
12124;SDS011;6126;57.908;16.490;2023-07-16T07:55:45;4.57;;;2.53;;
12124;SDS011;6126;57.908;16.490;2023-07-16T07:58:11;3.15;;;2.85;;
12124;SDS011;6126;57.908;16.490;2023-07-16T08:00:37;3.92;;;2.50;;
12124;SDS011;6126;57.908;16.490;2023-07-16T08:03:04;4.35;;;2.95;;
12124;SDS011;6126;57.908;16.490;2023-07-16T08:05:30;5.05;;;3.42;;
12124;SDS011;6126;57.908;16.490;2023-07-16T08:07:56;3.67;;;3.03;;
12124;SDS011;6126;57.908;16.490;2023-07-16T08:10:22;5.38;;;3.10;;
12124;SDS011;6126;57.908;16.490;2023-07-16T08:12:48;3.45;;;3.13;;
12124;SDS011;6126;57.908;16.490;2023-07-16T08:15:14;5.50;;;3.33;;
12124;SDS011;6126;57.908;16.490;2023-07-16T08:17:41;5.13;;;3.20;;
12124;SDS011;6126;57.908;16.490;2023-07-16T08:20:08;7.43;;;3.45;;
12124;SDS011;6126;57.908;16.490;2023-07-16T08:22:35;9.90;;;3.88;;
12124;SDS011;6126;57.908;16.490;2023-07-16T08:25:01;5.38;;;3.78;;
12124;SDS011;6126;57.908;16.490;2023-07-16T08:27:28;4.85;;;3.83;;
12124;SDS011;6126;57.908;16.490;2023-07-16T08:29:55;4.13;;;3.72;;
12124;SDS011;6126;57.908;16.490;2023-07-16T08:32:22;4.10;;;3.40;;
12124;SDS011;6126;57.908;16.490;2023-07-16T08:34:48;5.47;;;2.88;;
12124;SDS011;6126;57.908;16.490;2023-07-16T08:37:14;5.55;;;3.55;;
12124;SDS011;6126;57.908;16.490;2023-07-16T08:39:40;4.25;;;3.85;;
12124;SDS011;6126;57.908;16.490;2023-07-16T08:42:06;3.97;;;3.13;;
12124;SDS011;6126;57.908;16.490;2023-07-16T08:44:38;4.63;;;2.95;;
12124;SDS011;6126;57.908;16.490;2023-07-16T08:47:05;4.90;;;3.45;;
12124;SDS011;6126;57.908;16.490;2023-07-16T08:49:32;3.17;;;2.90;;
12124;SDS011;6126;57.908;16.490;2023-07-16T08:52:01;4.03;;;2.90;;
12124;SDS011;6126;57.908;16.490;2023-07-16T08:54:28;5.40;;;2.88;;
12124;SDS011;6126;57.908;16.490;2023-07-16T08:56:54;2.65;;;2.22;;
12124;SDS011;6126;57.908;16.490;2023-07-16T08:59:22;4.20;;;2.30;;
12124;SDS011;6126;57.908;16.490;2023-07-16T09:01:48;2.90;;;1.85;;
12124;SDS011;6126;57.908;16.490;2023-07-16T09:04:14;4.45;;;2.20;;
12124;SDS011;6126;57.908;16.490;2023-07-16T09:06:41;5.38;;;2.22;;
12124;SDS011;6126;57.908;16.490;2023-07-16T09:09:07;3.60;;;2.03;;
12124;SDS011;6126;57.908;16.490;2023-07-16T09:11:34;2.08;;;1.85;;
12124;SDS011;6126;57.908;16.490;2023-07-16T09:14:03;2.58;;;1.90;;
12124;SDS011;6126;57.908;16.490;2023-07-16T09:16:32;2.70;;;2.05;;
12124;SDS011;6126;57.908;16.490;2023-07-16T09:19:11;2.85;;;2.20;;
12124;SDS011;6126;57.908;16.490;2023-07-16T09:21:38;2.40;;;1.92;;
12124;SDS011;6126;57.908;16.490;2023-07-16T09:24:07;3.42;;;1.63;;
12124;SDS011;6126;57.908;16.490;2023-07-16T09:26:37;2.78;;;1.67;;
12124;SDS011;6126;57.908;16.490;2023-07-16T09:29:07;5.68;;;1.55;;
12124;SDS011;6126;57.908;16.490;2023-07-16T09:31:33;4.20;;;1.67;;
12124;SDS011;6126;57.908;16.490;2023-07-16T09:33:59;2.25;;;2.05;;
12124;SDS011;6126;57.908;16.490;2023-07-16T09:36:25;2.88;;;1.50;;
12124;SDS011;6126;57.908;16.490;2023-07-16T09:38:53;2.15;;;1.95;;
12124;SDS011;6126;57.908;16.490;2023-07-16T09:41:20;2.00;;;1.80;;
12124;SDS011;6126;57.908;16.490;2023-07-16T09:43:47;1.90;;;1.80;;
12124;SDS011;6126;57.908;16.490;2023-07-16T09:46:13;3.78;;;2.00;;
12124;SDS011;6126;57.908;16.490;2023-07-16T09:48:39;3.40;;;1.95;;
12124;SDS011;6126;57.908;16.490;2023-07-16T09:51:05;2.67;;;1.83;;
12124;SDS011;6126;57.908;16.490;2023-07-16T09:53:37;2.60;;;2.40;;
12124;SDS011;6126;57.908;16.490;2023-07-16T09:56:10;2.40;;;1.95;;
12124;SDS011;6126;57.908;16.490;2023-07-16T09:58:38;2.30;;;2.10;;
12124;SDS011;6126;57.908;16.490;2023-07-16T10:01:05;3.35;;;2.00;;
12124;SDS011;6126;57.908;16.490;2023-07-16T10:03:33;5.00;;;2.47;;
12124;SDS011;6126;57.908;16.490;2023-07-16T10:06:08;3.63;;;2.35;;
12124;SDS011;6126;57.908;16.490;2023-07-16T10:08:34;2.47;;;2.20;;
12124;SDS011;6126;57.908;16.490;2023-07-16T10:11:00;2.33;;;2.13;;
12124;SDS011;6126;57.908;16.490;2023-07-16T10:13:26;2.97;;;2.08;;
12124;SDS011;6126;57.908;16.490;2023-07-16T10:15:55;2.35;;;2.13;;
12124;SDS011;6126;57.908;16.490;2023-07-16T10:21:05;2.60;;;1.80;;
12124;SDS011;6126;57.908;16.490;2023-07-16T10:23:38;3.03;;;2.22;;
12124;SDS011;6126;57.908;16.490;2023-07-16T10:26:09;3.00;;;1.70;;
12124;SDS011;6126;57.908;16.490;2023-07-16T10:28:38;1.90;;;1.77;;
12124;SDS011;6126;57.908;16.490;2023-07-16T10:31:04;2.78;;;1.90;;
12124;SDS011;6126;57.908;16.490;2023-07-16T10:33:33;1.90;;;1.75;;
12124;SDS011;6126;57.908;16.490;2023-07-16T10:35:59;2.63;;;2.30;;
12124;SDS011;6126;57.908;16.490;2023-07-16T10:38:25;3.25;;;1.90;;
12124;SDS011;6126;57.908;16.490;2023-07-16T10:40:51;2.05;;;1.70;;
12124;SDS011;6126;57.908;16.490;2023-07-16T10:43:17;4.15;;;2.20;;
12124;SDS011;6126;57.908;16.490;2023-07-16T10:45:43;2.30;;;2.10;;
12124;SDS011;6126;57.908;16.490;2023-07-16T10:48:12;2.03;;;1.92;;
12124;SDS011;6126;57.908;16.490;2023-07-16T10:50:40;4.60;;;1.63;;
12124;SDS011;6126;57.908;16.490;2023-07-16T10:53:05;2.20;;;1.73;;
12124;SDS011;6126;57.908;16.490;2023-07-16T10:55:31;2.03;;;1.65;;
12124;SDS011;6126;57.908;16.490;2023-07-16T10:58:03;2.92;;;1.75;;
12124;SDS011;6126;57.908;16.490;2023-07-16T11:00:31;3.88;;;1.90;;
12124;SDS011;6126;57.908;16.490;2023-07-16T11:03:02;1.70;;;1.60;;
12124;SDS011;6126;57.908;16.490;2023-07-16T11:05:28;2.45;;;2.20;;
12124;SDS011;6126;57.908;16.490;2023-07-16T11:07:54;1.40;;;1.30;;
12124;SDS011;6126;57.908;16.490;2023-07-16T11:10:20;1.63;;;1.52;;
12124;SDS011;6126;57.908;16.490;2023-07-16T11:12:50;1.50;;;1.40;;
12124;SDS011;6126;57.908;16.490;2023-07-16T11:15:18;1.92;;;1.48;;
12124;SDS011;6126;57.908;16.490;2023-07-16T11:17:54;1.98;;;1.75;;
12124;SDS011;6126;57.908;16.490;2023-07-16T11:20:20;3.85;;;1.42;;
12124;SDS011;6126;57.908;16.490;2023-07-16T11:22:46;1.88;;;1.20;;
12124;SDS011;6126;57.908;16.490;2023-07-16T11:25:12;2.05;;;1.40;;
12124;SDS011;6126;57.908;16.490;2023-07-16T11:27:40;2.90;;;1.20;;
12124;SDS011;6126;57.908;16.490;2023-07-16T11:30:07;2.47;;;1.58;;
12124;SDS011;6126;57.908;16.490;2023-07-16T11:35:08;1.40;;;1.30;;
12124;SDS011;6126;57.908;16.490;2023-07-16T11:37:40;4.38;;;1.40;;
12124;SDS011;6126;57.908;16.490;2023-07-16T11:40:09;2.33;;;1.30;;
12124;SDS011;6126;57.908;16.490;2023-07-16T11:42:39;1.30;;;1.15;;
12124;SDS011;6126;57.908;16.490;2023-07-16T11:47:46;2.67;;;1.20;;
12124;SDS011;6126;57.908;16.490;2023-07-16T11:50:12;1.13;;;1.02;;
12124;SDS011;6126;57.908;16.490;2023-07-16T11:52:38;1.52;;;1.20;;
12124;SDS011;6126;57.908;16.490;2023-07-16T11:55:05;2.15;;;1.48;;
12124;SDS011;6126;57.908;16.490;2023-07-16T11:57:31;2.25;;;1.20;;
12124;SDS011;6126;57.908;16.490;2023-07-16T11:59:58;1.10;;;1.00;;
12124;SDS011;6126;57.908;16.490;2023-07-16T12:02:25;2.88;;;1.27;;
12124;SDS011;6126;57.908;16.490;2023-07-16T12:04:52;2.35;;;1.02;;
12124;SDS011;6126;57.908;16.490;2023-07-16T12:07:33;2.45;;;1.27;;
12124;SDS011;6126;57.908;16.490;2023-07-16T12:10:03;4.07;;;1.30;;
12124;SDS011;6126;57.908;16.490;2023-07-16T12:12:32;2.63;;;1.45;;
12124;SDS011;6126;57.908;16.490;2023-07-16T12:14:59;1.98;;;1.30;;
12124;SDS011;6126;57.908;16.490;2023-07-16T12:17:25;2.22;;;1.38;;
12124;SDS011;6126;57.908;16.490;2023-07-16T12:19:51;1.98;;;0.90;;
12124;SDS011;6126;57.908;16.490;2023-07-16T12:22:17;1.20;;;1.10;;
12124;SDS011;6126;57.908;16.490;2023-07-16T12:24:44;1.75;;;0.82;;
12124;SDS011;6126;57.908;16.490;2023-07-16T12:27:11;1.00;;;0.82;;
12124;SDS011;6126;57.908;16.490;2023-07-16T12:29:37;3.30;;;1.20;;
12124;SDS011;6126;57.908;16.490;2023-07-16T12:32:03;3.83;;;1.17;;
12124;SDS011;6126;57.908;16.490;2023-07-16T12:34:29;1.23;;;1.13;;
12124;SDS011;6126;57.908;16.490;2023-07-16T12:36:55;1.52;;;1.38;;
12124;SDS011;6126;57.908;16.490;2023-07-16T12:39:21;1.42;;;1.33;;
12124;SDS011;6126;57.908;16.490;2023-07-16T12:41:47;1.55;;;0.85;;
12124;SDS011;6126;57.908;16.490;2023-07-16T12:44:14;2.70;;;1.20;;
12124;SDS011;6126;57.908;16.490;2023-07-16T12:46:40;1.70;;;1.40;;
12124;SDS011;6126;57.908;16.490;2023-07-16T12:49:06;2.05;;;1.00;;
12124;SDS011;6126;57.908;16.490;2023-07-16T12:51:32;1.73;;;0.95;;
12124;SDS011;6126;57.908;16.490;2023-07-16T12:53:57;1.80;;;1.13;;
12124;SDS011;6126;57.908;16.490;2023-07-16T12:56:25;3.53;;;1.13;;
12124;SDS011;6126;57.908;16.490;2023-07-16T12:58:52;1.42;;;1.10;;
12124;SDS011;6126;57.908;16.490;2023-07-16T13:01:18;2.60;;;1.10;;
12124;SDS011;6126;57.908;16.490;2023-07-16T13:03:43;2.28;;;1.00;;
12124;SDS011;6126;57.908;16.490;2023-07-16T13:06:09;2.90;;;1.00;;
12124;SDS011;6126;57.908;16.490;2023-07-16T13:08:35;1.35;;;1.25;;
12124;SDS011;6126;57.908;16.490;2023-07-16T13:11:01;3.80;;;1.23;;
12124;SDS011;6126;57.908;16.490;2023-07-16T13:13:27;2.55;;;1.45;;
12124;SDS011;6126;57.908;16.490;2023-07-16T13:15:54;4.82;;;1.45;;
12124;SDS011;6126;57.908;16.490;2023-07-16T13:18:20;4.50;;;1.38;;
12124;SDS011;6126;57.908;16.490;2023-07-16T13:20:46;2.40;;;1.02;;
12124;SDS011;6126;57.908;16.490;2023-07-16T13:23:12;2.15;;;1.20;;
12124;SDS011;6126;57.908;16.490;2023-07-16T13:25:38;1.83;;;1.25;;
12124;SDS011;6126;57.908;16.490;2023-07-16T13:28:05;1.98;;;1.00;;
12124;SDS011;6126;57.908;16.490;2023-07-16T13:30:32;1.92;;;1.20;;
12124;SDS011;6126;57.908;16.490;2023-07-16T13:32:58;2.03;;;1.10;;
12124;SDS011;6126;57.908;16.490;2023-07-16T13:35:24;3.67;;;1.58;;
12124;SDS011;6126;57.908;16.490;2023-07-16T13:37:50;2.85;;;1.40;;
12124;SDS011;6126;57.908;16.490;2023-07-16T13:40:16;1.63;;;1.25;;
12124;SDS011;6126;57.908;16.490;2023-07-16T13:42:45;1.42;;;1.25;;
12124;SDS011;6126;57.908;16.490;2023-07-16T13:45:14;2.63;;;1.40;;
12124;SDS011;6126;57.908;16.490;2023-07-16T13:47:39;2.22;;;1.30;;
12124;SDS011;6126;57.908;16.490;2023-07-16T13:50:06;1.55;;;1.17;;
12124;SDS011;6126;57.908;16.490;2023-07-16T13:52:32;1.63;;;1.00;;
12124;SDS011;6126;57.908;16.490;2023-07-16T13:54:58;1.48;;;1.17;;
12124;SDS011;6126;57.908;16.490;2023-07-16T13:57:24;2.60;;;1.40;;
12124;SDS011;6126;57.908;16.490;2023-07-16T13:59:50;1.42;;;1.20;;
12124;SDS011;6126;57.908;16.490;2023-07-16T14:02:15;2.60;;;1.10;;
12124;SDS011;6126;57.908;16.490;2023-07-16T14:04:41;2.42;;;1.20;;
12124;SDS011;6126;57.908;16.490;2023-07-16T14:07:07;3.35;;;1.70;;
12124;SDS011;6126;57.908;16.490;2023-07-16T14:09:33;3.83;;;1.23;;
12124;SDS011;6126;57.908;16.490;2023-07-16T14:11:59;4.07;;;1.38;;
12124;SDS011;6126;57.908;16.490;2023-07-16T14:14:25;1.55;;;1.17;;
12124;SDS011;6126;57.908;16.490;2023-07-16T14:16:51;2.83;;;1.13;;
12124;SDS011;6126;57.908;16.490;2023-07-16T14:19:18;3.17;;;1.45;;
12124;SDS011;6126;57.908;16.490;2023-07-16T14:21:44;2.78;;;1.30;;
12124;SDS011;6126;57.908;16.490;2023-07-16T14:24:10;2.40;;;1.30;;
12124;SDS011;6126;57.908;16.490;2023-07-16T14:26:36;2.83;;;1.35;;
12124;SDS011;6126;57.908;16.490;2023-07-16T14:29:01;3.30;;;1.35;;
12124;SDS011;6126;57.908;16.490;2023-07-16T14:31:28;2.45;;;1.40;;
12124;SDS011;6126;57.908;16.490;2023-07-16T14:33:54;2.83;;;1.40;;
12124;SDS011;6126;57.908;16.490;2023-07-16T14:36:19;4.60;;;1.60;;
12124;SDS011;6126;57.908;16.490;2023-07-16T14:38:47;3.63;;;1.38;;
12124;SDS011;6126;57.908;16.490;2023-07-16T14:41:13;1.92;;;1.40;;
12124;SDS011;6126;57.908;16.490;2023-07-16T14:43:39;2.22;;;1.50;;
12124;SDS011;6126;57.908;16.490;2023-07-16T14:46:05;2.28;;;1.45;;
12124;SDS011;6126;57.908;16.490;2023-07-16T14:48:30;2.90;;;1.10;;
12124;SDS011;6126;57.908;16.490;2023-07-16T14:50:56;1.35;;;1.20;;
12124;SDS011;6126;57.908;16.490;2023-07-16T14:53:22;1.48;;;1.25;;
12124;SDS011;6126;57.908;16.490;2023-07-16T14:55:48;2.10;;;1.10;;
12124;SDS011;6126;57.908;16.490;2023-07-16T14:58:17;5.28;;;1.60;;